Time;durP1;ratioP1;P1;durP2;ratioP2;P2;SDS_P1;SDS_P2;PMS_P1;PMS_P2;Temp;Humidity;BMP_temperature;BMP_pressure;BME280_temperature;BME280_humidity;BME280_pressure;Samples;Min_cycle;Max_cycle;Signal;HPM_P1;HPM_P2
2022/04/25 00:01:14;;;;;;;6.23;4.73;;;14.00;56.10;;;;;;5032687;28;20428;-67
2022/04/25 00:03:40;;;;;;;11.43;5.87;;;13.50;59.20;;;;;;5031593;28;20501;-66
2022/04/25 00:06:06;;;;;;;6.80;5.10;;;13.80;60.90;;;;;;5032586;28;20454;-67
2022/04/25 00:08:32;;;;;;;6.30;5.10;;;14.10;58.40;;;;;;5031371;28;20201;-67
2022/04/25 00:10:57;;;;;;;5.93;4.87;;;14.50;53.20;;;;;;5032179;28;20172;-67
2022/04/25 00:13:23;;;;;;;6.80;4.90;;;14.20;54.50;;;;;;5032666;28;20427;-67
2022/04/25 00:15:49;;;;;;;7.53;5.70;;;13.20;62.00;;;;;;5032316;28;20189;-67
2022/04/25 00:18:15;;;;;;;6.70;5.30;;;13.30;63.30;;;;;;5031218;28;20183;-66
2022/04/25 00:20:41;;;;;;;6.77;5.13;;;13.70;60.50;;;;;;5031588;28;20557;-67
2022/04/25 00:23:07;;;;;;;7.93;5.80;;;13.70;61.20;;;;;;5032084;28;20314;-67
2022/04/25 00:25:34;;;;;;;10.03;6.40;;;13.90;59.80;;;;;;5032343;28;20435;-67
2022/04/25 00:28:00;;;;;;;7.57;6.20;;;14.00;56.80;;;;;;5031676;28;20428;-67
2022/04/25 00:30:28;;;;;;;8.33;5.63;;;14.00;56.10;;;;;;5031707;28;20455;-67
2022/04/25 00:32:55;;;;;;;8.10;5.70;;;13.80;57.90;;;;;;5032342;28;20423;-67
2022/04/25 00:35:22;;;;;;;10.50;7.10;;;14.00;57.10;;;;;;5032376;28;20908;-67
2022/04/25 00:37:48;;;;;;;8.27;6.40;;;14.10;56.70;;;;;;5031816;28;20954;-67
2022/04/25 00:40:15;;;;;;;9.20;6.20;;;13.60;58.90;;;;;;5029571;28;20463;-67
2022/04/25 00:42:41;;;;;;;10.83;7.27;;;13.30;61.60;;;;;;5031739;28;20423;-67
2022/04/25 00:45:09;;;;;;;11.43;7.07;;;13.40;59.80;;;;;;5027511;28;20451;-67
2022/04/25 00:47:36;;;;;;;10.60;7.20;;;13.90;57.40;;;;;;5031034;28;20546;-67
2022/04/25 00:50:02;;;;;;;12.00;7.30;;;13.70;57.30;;;;;;5030901;28;20599;-67
2022/04/25 00:52:28;;;;;;;11.63;7.97;;;13.70;59.40;;;;;;5027499;28;20432;-67
2022/04/25 00:54:54;;;;;;;9.23;7.20;;;13.80;59.00;;;;;;5031503;28;20420;-67
2022/04/25 00:57:20;;;;;;;12.23;7.53;;;13.90;58.60;;;;;;5031495;28;20714;-67
2022/04/25 00:59:47;;;;;;;10.40;7.50;;;14.10;57.70;;;;;;5031689;28;20551;-67
2022/04/25 01:02:13;;;;;;;12.13;8.10;;;14.30;56.70;;;;;;5029877;28;21162;-67
2022/04/25 01:04:38;;;;;;;10.90;8.03;;;14.30;53.40;;;;;;5028011;28;20424;-67
2022/04/25 01:07:04;;;;;;;10.53;7.10;;;14.10;55.50;;;;;;5031656;28;20198;-67
2022/04/25 01:09:30;;;;;;;12.20;8.57;;;13.80;56.00;;;;;;5031344;28;20577;-67
2022/04/25 01:11:58;;;;;;;10.43;7.50;;;14.00;56.20;;;;;;5026364;28;20427;-67
2022/04/25 01:14:24;;;;;;;11.47;8.07;;;14.30;52.90;;;;;;5023616;28;20180;-67
2022/04/25 01:16:50;;;;;;;11.80;8.27;;;14.00;54.00;;;;;;5031058;28;20424;-67
2022/04/25 01:19:16;;;;;;;11.20;8.23;;;13.90;55.60;;;;;;5019830;28;20452;-67
2022/04/25 01:21:44;;;;;;;12.43;9.30;;;14.00;58.00;;;;;;5026176;28;20427;-67
2022/04/25 01:29:39;;;;;;;12.23;8.47;;;14.10;57.80;;;;;;5027455;28;20473;-68
2022/04/25 01:32:05;;;;;;;14.00;9.30;;;14.20;56.20;;;;;;5030276;28;20511;-67
2022/04/25 01:34:33;;;;;;;12.50;9.07;;;14.30;57.10;;;;;;5030590;28;20467;-67
2022/04/25 01:36:59;;;;;;;11.83;8.60;;;14.20;56.40;;;;;;5024293;28;20450;-67
2022/04/25 01:39:25;;;;;;;12.90;8.47;;;14.20;57.10;;;;;;5024916;28;20465;-67
2022/04/25 01:41:50;;;;;;;11.40;8.00;;;14.10;57.10;;;;;;5030963;28;21036;-68
2022/04/25 01:44:16;;;;;;;15.53;9.40;;;14.10;57.00;;;;;;5013052;28;20180;-67
2022/04/25 01:46:41;;;;;;;12.63;8.60;;;14.20;57.20;;;;;;5031636;28;20202;-67
2022/04/25 01:49:07;;;;;;;13.53;8.40;;;14.30;56.80;;;;;;5027692;28;20201;-67
2022/04/25 01:51:33;;;;;;;12.20;7.30;;;14.20;57.20;;;;;;5024171;28;20554;-67
2022/04/25 01:53:58;;;;;;;15.37;8.80;;;14.10;57.40;;;;;;5022349;28;20656;-67
2022/04/25 01:56:24;;;;;;;11.57;8.20;;;14.20;58.20;;;;;;5030944;28;20602;-67
2022/04/25 01:58:50;;;;;;;12.73;8.53;;;14.00;57.40;;;;;;5028648;28;20212;-67
2022/04/25 02:01:16;;;;;;;13.27;7.83;;;13.90;59.20;;;;;;5029620;28;20185;-67
2022/04/25 02:03:43;;;;;;;14.00;8.97;;;13.60;60.90;;;;;;5031001;28;20211;-67
2022/04/25 02:06:09;;;;;;;12.37;7.60;;;13.60;61.50;;;;;;5031047;28;20462;-67
2022/04/25 02:08:34;;;;;;;14.27;8.77;;;13.30;62.50;;;;;;5032725;28;20439;-67
2022/04/25 02:13:45;;;;;;;11.00;8.13;;;13.10;64.70;;;;;;5028048;28;20218;-67
2022/04/25 02:16:11;;;;;;;12.13;8.90;;;13.20;67.40;;;;;;5035119;28;20833;-67
2022/04/25 02:18:39;;;;;;;11.50;8.73;;;12.90;67.20;;;;;;5033828;28;20468;-67
2022/04/25 02:21:05;;;;;;;10.70;7.90;;;12.60;70.30;;;;;;5033620;28;20532;-67
2022/04/25 02:23:30;;;;;;;11.93;8.50;;;12.70;70.20;;;;;;5033215;28;20526;-67
2022/04/25 02:25:56;;;;;;;10.10;7.70;;;12.80;69.20;;;;;;5012409;28;20255;-68
2022/04/25 02:28:22;;;;;;;12.63;7.70;;;12.50;70.30;;;;;;5033083;28;20236;-67
2022/04/25 02:30:47;;;;;;;11.27;8.40;;;12.40;72.90;;;;;;5033410;28;20819;-67
2022/04/25 02:33:13;;;;;;;11.10;8.13;;;12.50;72.70;;;;;;5034533;28;20180;-67
2022/04/25 02:35:38;;;;;;;11.27;7.83;;;12.60;71.00;;;;;;5028213;28;20259;-67
2022/04/25 02:38:04;;;;;;;11.20;8.10;;;13.20;68.00;;;;;;5034610;28;20173;-67
2022/04/25 02:40:30;;;;;;;11.00;8.10;;;13.80;61.40;;;;;;5033363;28;20259;-67
2022/04/25 02:42:55;;;;;;;14.43;8.77;;;14.20;57.50;;;;;;5027941;28;20638;-67
2022/04/25 02:45:21;;;;;;;13.77;8.80;;;14.60;56.60;;;;;;5034578;28;20173;-67
2022/04/25 02:47:47;;;;;;;13.30;9.10;;;14.40;55.00;;;;;;5032454;28;20936;-68
2022/04/25 02:50:12;;;;;;;12.13;8.70;;;14.40;55.20;;;;;;5024475;28;20538;-68
2022/04/25 02:52:38;;;;;;;12.50;8.57;;;14.50;54.90;;;;;;5028118;28;20212;-67
2022/04/25 02:55:04;;;;;;;12.77;9.20;;;14.70;52.90;;;;;;5026294;28;20193;-67
2022/04/25 02:57:30;;;;;;;12.70;8.43;;;14.50;53.20;;;;;;5034351;28;20687;-67
2022/04/25 02:59:55;;;;;;;12.23;8.90;;;14.50;54.00;;;;;;5034298;28;20534;-67
2022/04/25 03:02:21;;;;;;;11.83;8.23;;;14.30;54.70;;;;;;5032184;28;20258;-68
2022/04/25 03:04:47;;;;;;;12.17;8.73;;;14.40;55.70;;;;;;5033422;28;20658;-67
2022/04/25 03:07:12;;;;;;;11.50;8.60;;;14.40;56.40;;;;;;5033874;28;20193;-67
2022/04/25 03:09:38;;;;;;;13.30;9.07;;;14.50;56.50;;;;;;5016297;28;20205;-67
2022/04/25 03:12:04;;;;;;;12.97;9.30;;;14.50;55.90;;;;;;5031607;28;20490;-67
2022/04/25 03:14:30;;;;;;;12.57;8.97;;;14.60;55.60;;;;;;5028403;28;20192;-67
2022/04/25 03:16:55;;;;;;;13.67;9.63;;;14.40;56.30;;;;;;5032322;28;20828;-67
2022/04/25 03:19:21;;;;;;;12.43;8.77;;;14.50;55.50;;;;;;5027484;28;20745;-67
2022/04/25 03:21:47;;;;;;;13.60;9.20;;;14.50;55.90;;;;;;5032625;28;20180;-67
2022/04/25 03:24:12;;;;;;;12.57;9.67;;;14.60;54.20;;;;;;5032877;28;20568;-67
2022/04/25 03:26:39;;;;;;;12.67;9.20;;;14.70;53.30;;;;;;5033501;28;20559;-67
2022/04/25 03:29:05;;;;;;;12.07;9.17;;;14.50;55.90;;;;;;5033416;28;20267;-67
2022/04/25 03:31:31;;;;;;;13.97;9.97;;;14.40;57.20;;;;;;5033832;28;20435;-67
2022/04/25 03:33:56;;;;;;;15.87;9.70;;;14.40;56.70;;;;;;5032049;28;20440;-68
2022/04/25 03:36:22;;;;;;;14.40;10.20;;;14.40;56.50;;;;;;5023783;28;20174;-67
2022/04/25 03:38:48;;;;;;;12.90;9.43;;;14.40;56.50;;;;;;5033362;28;20202;-68
2022/04/25 03:41:14;;;;;;;13.50;9.97;;;14.40;56.40;;;;;;5033547;28;20243;-67
2022/04/25 03:43:39;;;;;;;13.10;10.13;;;14.20;57.20;;;;;;5032138;28;20192;-67
2022/04/25 03:46:05;;;;;;;16.63;10.97;;;14.30;56.70;;;;;;5031140;28;20456;-67
2022/04/25 03:48:31;;;;;;;14.07;10.00;;;14.10;57.20;;;;;;5027341;28;20597;-67
2022/04/25 03:50:56;;;;;;;14.00;9.87;;;14.10;57.20;;;;;;5025660;28;20252;-67
2022/04/25 03:53:22;;;;;;;14.20;10.27;;;14.00;57.60;;;;;;5033002;28;20598;-68
2022/04/25 03:58:32;;;;;;;14.17;11.03;;;14.00;57.70;;;;;;5032267;28;20276;-67
2022/04/25 04:00:58;;;;;;;17.27;12.37;;;14.00;59.00;;;;;;5032833;28;20514;-67
2022/04/25 04:03:23;;;;;;;14.17;10.50;;;14.00;58.70;;;;;;5032284;28;20210;-67
2022/04/25 04:05:50;;;;;;;17.57;11.13;;;14.10;58.50;;;;;;5030230;28;20442;-67
2022/04/25 04:08:16;;;;;;;24.00;12.50;;;14.10;59.20;;;;;;5029330;28;20322;-67
2022/04/25 04:10:42;;;;;;;15.93;11.27;;;14.20;58.50;;;;;;5031469;28;20820;-67
2022/04/25 04:13:08;;;;;;;15.27;10.43;;;14.00;59.80;;;;;;5032465;28;20423;-68
2022/04/25 04:15:34;;;;;;;19.47;12.23;;;14.10;59.70;;;;;;5031681;28;20284;-67
2022/04/25 04:17:59;;;;;;;19.23;12.30;;;14.00;60.40;;;;;;5029909;28;20203;-67
2022/04/25 04:20:25;;;;;;;17.90;11.63;;;14.10;60.10;;;;;;5030309;28;20219;-67
2022/04/25 04:22:51;;;;;;;16.73;11.27;;;14.10;59.40;;;;;;5032352;28;20184;-68
2022/04/25 04:25:16;;;;;;;19.57;12.37;;;14.30;58.50;;;;;;5031788;28;20200;-67
2022/04/25 04:27:43;;;;;;;19.93;13.73;;;14.30;59.10;;;;;;5009935;28;20307;-67
2022/04/25 04:30:12;;;;;;;18.80;12.77;;;14.30;58.80;;;;;;5026888;28;20208;-67
2022/04/25 04:32:40;;;;;;;18.73;12.70;;;14.30;58.60;;;;;;5032296;28;20473;-67
2022/04/25 04:35:11;;;;;;;22.93;14.23;;;14.40;58.00;;;;;;5032366;28;20764;-68
2022/04/25 04:37:38;;;;;;;23.70;13.57;;;14.40;57.30;;;;;;5020630;28;20443;-67
2022/04/25 04:42:49;;;;;;;22.30;13.80;;;14.40;57.40;;;;;;5032256;28;20944;-67
2022/04/25 04:45:15;;;;;;;27.20;13.77;;;14.40;57.90;;;;;;5031126;28;20443;-67
2022/04/25 04:47:41;;;;;;;20.90;13.77;;;14.40;57.70;;;;;;5030942;28;20202;-67
2022/04/25 04:50:10;;;;;;;19.37;12.77;;;14.40;57.50;;;;;;5031791;28;20928;-67
2022/04/25 04:52:36;;;;;;;20.53;13.17;;;14.50;57.40;;;;;;5027886;28;20177;-68
2022/04/25 04:55:02;;;;;;;19.37;12.47;;;14.50;58.00;;;;;;5029868;28;20436;-68
2022/04/25 04:57:28;;;;;;;17.33;12.20;;;14.40;58.10;;;;;;5026628;28;20444;-67
2022/04/25 04:59:53;;;;;;;18.77;12.23;;;14.40;58.60;;;;;;5027949;28;20538;-67
2022/04/25 05:02:19;;;;;;;24.00;13.20;;;14.50;58.60;;;;;;5030466;28;20185;-67
2022/04/25 05:04:44;;;;;;;19.93;12.50;;;14.50;59.20;;;;;;5031194;28;20714;-67
2022/04/25 05:07:10;;;;;;;20.43;14.07;;;14.50;58.90;;;;;;5030669;28;20200;-67
2022/04/25 05:09:36;;;;;;;17.70;12.57;;;14.50;58.80;;;;;;5030652;28;20278;-67
2022/04/25 05:12:02;;;;;;;17.97;13.10;;;14.50;58.60;;;;;;5031110;28;20555;-66
2022/04/25 05:14:27;;;;;;;18.40;12.80;;;14.50;58.60;;;;;;5031060;28;20655;-67
2022/04/25 05:16:53;;;;;;;20.30;13.93;;;14.60;58.70;;;;;;5031383;28;20181;-67
2022/04/25 05:19:20;;;;;;;21.10;13.00;;;14.60;58.00;;;;;;5029066;28;20205;-66
2022/04/25 05:21:46;;;;;;;21.47;13.73;;;14.60;58.70;;;;;;5030496;28;20544;-67
2022/04/25 05:24:12;;;;;;;24.90;14.40;;;14.80;58.40;;;;;;5031071;28;20432;-66
2022/04/25 05:26:37;;;;;;;17.27;13.00;;;14.80;58.00;;;;;;5030949;28;20468;-66
2022/04/25 05:29:03;;;;;;;21.17;13.40;;;14.80;57.20;;;;;;5029532;28;20217;-67
2022/04/25 05:31:28;;;;;;;18.40;13.23;;;14.90;57.50;;;;;;5027124;28;20656;-67
2022/04/25 05:33:54;;;;;;;20.00;14.00;;;15.00;55.80;;;;;;5030465;28;20185;-66
2022/04/25 05:36:20;;;;;;;21.27;14.83;;;15.00;55.80;;;;;;5023470;28;20234;-67
2022/04/25 05:38:45;;;;;;;25.27;15.13;;;15.10;54.70;;;;;;5029436;28;20210;-68
2022/04/25 05:41:11;;;;;;;21.23;14.50;;;15.20;55.60;;;;;;5029487;28;20659;-67
2022/04/25 05:43:38;;;;;;;24.17;15.43;;;15.50;52.80;;;;;;5029203;28;20608;-67
2022/04/25 05:46:04;;;;;;;23.10;15.80;;;15.40;52.90;;;;;;5022023;28;20462;-66
2022/04/25 05:53:59;;;;;;;18.87;14.57;;;15.40;54.00;;;;;;5071081;22;20505;-73
2022/04/25 05:56:25;;;;;;;23.17;14.70;;;15.40;53.60;;;;;;5041143;28;20438;-73
2022/04/25 05:58:50;;;;;;;21.00;15.50;;;15.40;53.60;;;;;;5030946;28;20176;-73
2022/04/25 06:01:16;;;;;;;23.10;15.77;;;15.40;53.60;;;;;;5049344;28;20240;-73
2022/04/25 06:03:42;;;;;;;18.77;14.40;;;15.30;53.50;;;;;;5029271;28;20231;-73
2022/04/25 06:06:07;;;;;;;27.13;16.40;;;15.40;53.60;;;;;;5030130;28;20213;-74
2022/04/25 06:08:33;;;;;;;30.70;17.33;;;15.40;53.60;;;;;;5030764;28;20191;-73
2022/04/25 06:10:59;;;;;;;21.90;16.43;;;15.40;50.10;;;;;;5027835;28;20172;-73
2022/04/25 06:13:25;;;;;;;25.23;16.40;;;15.50;48.50;;;;;;5027086;28;20280;-73
2022/04/25 06:15:52;;;;;;;26.10;16.80;;;15.70;47.90;;;;;;5030735;28;20172;-73
2022/04/25 06:18:17;;;;;;;22.77;15.93;;;15.90;46.70;;;;;;5021809;28;20934;-73
2022/04/25 06:20:43;;;;;;;20.83;15.97;;;15.80;46.30;;;;;;5027712;28;20451;-73
2022/04/25 06:23:09;;;;;;;22.40;16.50;;;15.80;48.00;;;;;;5022387;28;20243;-73
2022/04/25 06:25:37;;;;;;;23.67;17.30;;;15.90;49.50;;;;;;5025577;28;20192;-73
2022/04/25 06:28:03;;;;;;;24.30;17.07;;;15.60;46.40;;;;;;5022872;28;20672;-73
2022/04/25 06:30:30;;;;;;;25.43;18.40;;;15.70;46.40;;;;;;5024796;28;20437;-73
2022/04/25 06:32:59;;;;;;;29.43;18.40;;;15.90;45.50;;;;;;5022211;28;20439;-73
2022/04/25 06:35:25;;;;;;;26.30;18.77;;;16.00;45.60;;;;;;5023725;28;20443;-74
2022/04/25 06:37:51;;;;;;;25.50;19.60;;;15.80;45.60;;;;;;5019081;28;20445;-74
2022/04/25 06:40:18;;;;;;;25.67;19.27;;;15.70;48.40;;;;;;5016819;28;20432;-74
2022/04/25 06:42:44;;;;;;;25.87;17.70;;;16.00;46.30;;;;;;5017092;28;20209;-74
2022/04/25 06:45:09;;;;;;;26.70;19.90;;;15.80;43.40;;;;;;5020461;28;20438;-73
2022/04/25 06:47:35;;;;;;;24.80;18.53;;;15.90;45.40;;;;;;5014564;28;20924;-74
2022/04/25 06:50:01;;;;;;;37.20;20.00;;;16.10;47.00;;;;;;5016220;28;20179;-73
2022/04/25 06:52:27;;;;;;;28.03;20.07;;;16.30;42.90;;;;;;5013670;28;20206;-73
2022/04/25 06:54:52;;;;;;;26.77;20.20;;;16.40;44.70;;;;;;5019602;28;21002;-73
2022/04/25 06:57:18;;;;;;;26.77;20.30;;;16.00;45.80;;;;;;5017356;28;20652;-73
2022/04/25 06:59:44;;;;;;;24.80;19.27;;;16.20;42.00;;;;;;5020852;28;20229;-73
2022/04/25 07:02:10;;;;;;;30.60;21.60;;;16.60;40.40;;;;;;5017541;28;20475;-72
2022/04/25 07:04:37;;;;;;;28.40;19.90;;;16.80;41.30;;;;;;5028435;28;20193;-75
2022/04/25 07:07:03;;;;;;;26.00;19.13;;;16.60;43.00;;;;;;5031114;28;20474;-74
2022/04/25 07:09:29;;;;;;;26.93;20.27;;;16.40;43.50;;;;;;5031317;28;20430;-74
2022/04/25 07:11:54;;;;;;;29.53;19.30;;;16.40;42.70;;;;;;5027837;28;20930;-74
2022/04/25 07:14:24;;;;;;;24.57;19.27;;;16.50;42.20;;;;;;5028396;28;20201;-74
2022/04/25 07:16:52;;;;;;;25.67;19.37;;;16.80;41.50;;;;;;5027758;28;20185;-74
2022/04/25 07:19:19;;;;;;;26.67;19.13;;;16.60;40.90;;;;;;5022484;28;20946;-73
2022/04/25 07:30:00;;;;;;;25.93;19.33;;;16.80;40.40;;;;;;5025410;28;20451;-77
2022/04/25 07:32:26;;;;;;;26.33;19.40;;;16.50;40.20;;;;;;5022939;28;20882;-74
2022/04/25 07:34:51;;;;;;;25.07;19.50;;;16.60;41.90;;;;;;5025080;28;20452;-74
2022/04/25 07:37:19;;;;;;;22.40;18.10;;;16.60;41.90;;;;;;5023920;28;20496;-74
2022/04/25 07:39:48;;;;;;;27.87;17.97;;;17.00;42.10;;;;;;5025948;28;20190;-74
2022/04/25 07:42:15;;;;;;;25.80;17.70;;;17.40;39.30;;;;;;5020347;28;20806;-73
2022/04/25 07:44:42;;;;;;;25.03;19.20;;;17.40;40.90;;;;;;5023438;28;20435;-74
2022/04/25 07:47:08;;;;;;;26.83;17.80;;;16.80;38.70;;;;;;5009429;28;20493;-74
2022/04/25 07:49:34;;;;;;;26.20;18.60;;;16.30;43.30;;;;;;5029798;28;20791;-74
2022/04/25 07:52:00;;;;;;;26.60;19.33;;;16.30;42.90;;;;;;5023809;28;20419;-73
2022/04/25 07:54:26;;;;;;;26.07;18.67;;;16.70;40.40;;;;;;5028472;28;20210;-74
2022/04/25 07:56:51;;;;;;;25.10;17.80;;;17.10;41.50;;;;;;5030080;28;20661;-74
2022/04/25 07:59:17;;;;;;;20.77;16.27;;;16.70;39.30;;;;;;5024377;28;20267;-74
2022/04/25 08:01:43;;;;;;;22.70;16.50;;;16.40;41.60;;;;;;5022594;28;20189;-74
2022/04/25 08:04:09;;;;;;;20.03;16.40;;;16.60;40.10;;;;;;5018928;28;20456;-74
2022/04/25 08:06:35;;;;;;;28.03;17.63;;;16.00;40.20;;;;;;5016934;28;20473;-74
2022/04/25 08:09:03;;;;;;;27.00;18.60;;;16.00;43.30;;;;;;5021194;28;20179;-74
2022/04/25 08:11:29;;;;;;;27.40;19.20;;;15.80;39.50;;;;;;5028495;28;20191;-74
2022/04/25 08:19:24;;;;;;;25.13;16.90;;;16.80;39.60;;;;;;5024520;28;20438;-75
2022/04/25 08:21:49;;;;;;;23.57;17.50;;;16.80;41.20;;;;;;5015357;28;20439;-74
2022/04/25 08:24:15;;;;;;;19.70;15.40;;;16.90;41.80;;;;;;5015761;28;20210;-74
2022/04/25 08:26:41;;;;;;;23.03;16.13;;;16.70;41.10;;;;;;5014945;28;20694;-75
2022/04/25 08:29:07;;;;;;;20.57;15.47;;;17.10;38.40;;;;;;5019837;28;20173;-75
2022/04/25 08:31:35;;;;;;;19.50;16.10;;;17.50;35.00;;;;;;5022829;28;21003;-80
2022/04/25 08:34:03;;;;;;;20.57;15.87;;;17.60;36.50;;;;;;5028401;28;20452;-74
2022/04/25 08:36:30;;;;;;;21.37;16.27;;;17.60;35.10;;;;;;5022167;28;20482;-74
2022/04/25 08:38:55;;;;;;;20.37;16.40;;;17.60;35.90;;;;;;5031531;28;20446;-74
2022/04/25 08:41:33;;;;;;;26.33;17.27;;;17.90;39.40;;;;;;5030442;28;20432;-75
2022/04/25 08:43:59;;;;;;;26.17;15.80;;;18.30;35.00;;;;;;5029391;28;20207;-74
2022/04/25 08:46:30;;;;;;;20.90;16.43;;;18.40;36.70;;;;;;5029290;28;20463;-73
2022/04/25 08:48:57;;;;;;;18.67;15.67;;;18.40;32.20;;;;;;5028997;28;20446;-73
2022/04/25 08:51:26;;;;;;;24.63;16.23;;;17.60;34.40;;;;;;5027658;28;20438;-73
2022/04/25 08:53:54;;;;;;;21.97;15.17;;;17.20;34.60;;;;;;5027854;28;20467;-74
2022/04/25 08:56:23;;;;;;;27.93;16.70;;;17.10;34.50;;;;;;5025522;28;20462;-73
2022/04/25 08:58:50;;;;;;;20.30;15.03;;;17.30;38.50;;;;;;5028310;28;20528;-74
2022/04/25 09:01:16;;;;;;;27.20;16.63;;;17.90;36.50;;;;;;5025038;28;20448;-74
2022/04/25 09:03:42;;;;;;;18.87;14.27;;;18.80;32.70;;;;;;5025701;28;20494;-75
2022/04/25 09:06:08;;;;;;;21.77;15.63;;;19.10;31.60;;;;;;5021309;28;20503;-75
2022/04/25 09:08:34;;;;;;;18.13;14.17;;;18.90;31.50;;;;;;5022540;28;20570;-75
2022/04/25 09:13:45;;;;;;;23.80;15.07;;;19.30;31.30;;;;;;5020977;28;20817;-74
2022/04/25 09:16:16;;;;;;;18.30;15.10;;;19.20;29.90;;;;;;5024253;28;20442;-74
2022/04/25 09:18:42;;;;;;;17.87;14.57;;;19.40;29.50;;;;;;5025000;28;20861;-74
2022/04/25 09:21:13;;;;;;;29.37;14.60;;;19.70;31.60;;;;;;5020169;28;20467;-74
2022/04/25 09:23:38;;;;;;;20.47;15.80;;;19.40;29.30;;;;;;5027128;28;20459;-74
2022/04/25 09:26:14;;;;;;;21.10;16.10;;;19.30;29.90;;;;;;5020442;28;20487;-74
2022/04/25 09:28:52;;;;;;;26.53;16.00;;;19.00;32.20;;;;;;5019733;28;20228;-74
2022/04/25 09:31:18;;;;;;;23.43;16.93;;;18.80;32.20;;;;;;5024662;28;20873;-74
2022/04/25 09:33:45;;;;;;;20.73;16.33;;;18.30;33.10;;;;;;5026417;28;21049;-74
2022/04/25 09:36:11;;;;;;;23.50;16.30;;;18.50;33.90;;;;;;5022278;28;20431;-74
2022/04/25 09:38:40;;;;;;;24.13;17.43;;;18.80;31.20;;;;;;5019440;28;20443;-74
2022/04/25 09:41:11;;;;;;;21.17;16.13;;;18.90;31.70;;;;;;5024229;28;20435;-74
2022/04/25 09:43:39;;;;;;;21.80;17.03;;;19.30;32.20;;;;;;5021868;28;21052;-74
2022/04/25 09:46:14;;;;;;;21.53;15.60;;;19.60;29.60;;;;;;5020290;28;20445;-74
2022/04/25 09:48:43;;;;;;;22.60;16.30;;;19.20;29.00;;;;;;5022147;28;20932;-74
2022/04/25 09:51:11;;;;;;;21.20;15.57;;;19.40;29.00;;;;;;5019499;28;20488;-74
2022/04/25 09:53:47;;;;;;;22.73;16.83;;;19.30;29.20;;;;;;5017945;28;20469;-74
2022/04/25 09:56:15;;;;;;;20.20;16.30;;;19.60;28.90;;;;;;5020497;28;20434;-73
2022/04/25 09:58:42;;;;;;;29.93;16.00;;;19.90;27.60;;;;;;5025508;28;20484;-74
2022/04/25 10:01:13;;;;;;;26.13;15.73;;;19.60;28.60;;;;;;5020533;28;20513;-74
2022/04/25 10:03:39;;;;;;;22.50;15.40;;;19.70;29.30;;;;;;5020092;28;20444;-74
2022/04/25 10:06:05;;;;;;;21.90;15.60;;;19.20;28.90;;;;;;5026167;28;20797;-74
2022/04/25 10:08:34;;;;;;;24.87;15.10;;;19.10;29.30;;;;;;5027783;28;20427;-73
2022/04/25 10:11:02;;;;;;;29.77;17.13;;;19.40;28.60;;;;;;5021825;28;20179;-74
2022/04/25 10:13:31;;;;;;;20.83;16.10;;;18.80;30.00;;;;;;5020682;28;20444;-73
2022/04/25 10:15:58;;;;;;;20.60;15.83;;;19.10;29.40;;;;;;5021703;28;20442;-74
2022/04/25 10:18:25;;;;;;;24.70;16.27;;;19.00;29.60;;;;;;5019929;28;20465;-73
2022/04/25 10:20:51;;;;;;;18.07;14.70;;;18.90;30.30;;;;;;5004103;28;20967;-73
2022/04/25 10:23:17;;;;;;;22.23;15.80;;;19.40;30.00;;;;;;5022388;28;20456;-73
2022/04/25 10:25:56;;;;;;;19.10;15.57;;;19.40;29.30;;;;;;5021771;28;20178;-73
2022/04/25 10:28:25;;;;;;;20.20;15.17;;;19.80;28.50;;;;;;5024330;28;20430;-73
2022/04/25 10:30:51;;;;;;;18.67;15.13;;;19.90;28.90;;;;;;5022144;28;20518;-74
2022/04/25 10:33:22;;;;;;;23.00;16.10;;;19.90;28.20;;;;;;5020793;28;20456;-74
2022/04/25 10:35:50;;;;;;;20.53;15.77;;;19.70;28.00;;;;;;5024278;28;20787;-73
2022/04/25 10:44:31;;;;;;;19.27;15.03;;;20.50;28.00;;;;;;5021160;28;20492;-74
2022/04/25 10:47:06;;;;;;;18.30;15.50;;;21.00;26.70;;;;;;5027838;28;20504;-74
2022/04/25 10:49:45;;;;;;;23.73;15.47;;;19.80;27.10;;;;;;5029376;28;20435;-75
2022/04/25 10:52:51;;;;;;;21.60;15.77;;;20.30;27.30;;;;;;5020336;28;20434;-74
2022/04/25 10:55:38;;;;;;;19.60;15.13;;;20.50;26.80;;;;;;5030234;28;20579;-73
2022/04/25 10:58:04;;;;;;;17.27;14.73;;;20.50;26.60;;;;;;5031909;28;20790;-74
2022/04/25 11:00:42;;;;;;;20.67;15.67;;;19.90;26.80;;;;;;5031369;28;20446;-74
2022/04/25 11:03:13;;;;;;;20.23;15.70;;;19.50;27.00;;;;;;5030912;28;20211;-74
2022/04/25 11:05:41;;;;;;;18.93;14.57;;;19.40;27.60;;;;;;5031876;28;20471;-73
2022/04/25 11:08:18;;;;;;;19.80;13.40;;;18.60;29.80;;;;;;5030532;28;20910;-74
2022/04/25 11:10:58;;;;;;;15.87;11.97;;;17.60;33.80;;;;;;5031227;28;20444;-75
2022/04/25 11:13:29;;;;;;;18.00;11.10;;;17.40;31.60;;;;;;5028302;28;20453;-74
2022/04/25 11:15:57;;;;;;;13.53;9.80;;;17.00;35.10;;;;;;5030164;28;20420;-76
2022/04/25 11:18:34;;;;;;;17.60;11.80;;;16.10;39.50;;;;;;5028582;28;20536;-75
2022/04/25 11:21:07;;;;;;;19.20;13.07;;;16.10;42.20;;;;;;5028644;28;20519;-75
2022/04/25 11:23:35;;;;;;;29.57;12.57;;;15.40;48.30;;;;;;5027643;28;20474;-75
2022/04/25 11:26:04;;;;;;;24.90;13.00;;;15.10;51.60;;;;;;5025782;28;20521;-76
2022/04/25 11:28:32;;;;;;;22.43;13.43;;;15.10;52.90;;;;;;5027264;28;20429;-74
2022/04/25 11:31:13;;;;;;;26.63;15.00;;;15.50;52.10;;;;;;5026521;28;20527;-76
2022/04/25 11:33:47;;;;;;;22.83;14.80;;;15.80;51.30;;;;;;5028360;28;20541;-75
2022/04/25 11:36:13;;;;;;;17.90;13.30;;;15.20;53.40;;;;;;5026583;28;20433;-75
2022/04/25 11:41:24;;;;;;;27.63;16.50;;;15.10;48.70;;;;;;5024035;28;21020;-75
2022/04/25 11:43:50;;;;;;;24.77;14.90;;;14.90;52.00;;;;;;5025505;28;20497;-75
2022/04/25 11:46:19;;;;;;;20.27;14.70;;;13.70;64.90;;;;;;5023094;28;21557;-76
2022/04/25 11:48:49;;;;;;;19.10;14.57;;;13.10;78.80;;;;;;5023004;28;20562;-76
2022/04/25 11:51:25;;;;;;;16.03;10.90;;;13.20;74.20;;;;;;5023604;28;20437;-75
2022/04/25 11:53:57;;;;;;;14.80;9.73;;;12.90;73.80;;;;;;5022638;28;20982;-75
2022/04/25 11:56:23;;;;;;;14.17;9.20;;;12.60;77.00;;;;;;5019993;28;20506;-75
2022/04/25 11:58:49;;;;;;;13.03;9.33;;;13.10;78.70;;;;;;5024130;28;20823;-76
2022/04/25 12:01:48;;;;;;;14.10;10.40;;;12.20;81.90;;;;;;5024538;28;20464;-76
2022/04/25 12:04:27;;;;;;;11.97;9.80;;;12.40;81.50;;;;;;5065024;22;20483;-71
2022/04/25 12:07:06;;;;;;;18.57;13.67;;;12.50;80.80;;;;;;5044503;28;20505;-70
2022/04/25 12:15:34;;;;;;;15.90;12.10;;;13.40;71.90;;;;;;5045878;28;20914;-71
2022/04/25 12:15:38;;;;;;;16.13;12.37;;;13.10;69.80;;;;;;5018257;28;20405;-71
2022/04/25 12:18:28;;;;;;;15.50;11.60;;;13.20;67.90;;;;;;5022220;28;20427;-71
2022/04/25 12:21:11;;;;;;;16.57;9.73;;;13.50;71.10;;;;;;5028739;28;20441;-71
2022/04/25 12:23:49;;;;;;;13.50;10.33;;;13.90;60.50;;;;;;5029391;28;20460;-71
2022/04/25 12:26:29;;;;;;;20.10;11.30;;;14.10;64.20;;;;;;5025385;28;21054;-71
2022/04/25 12:29:06;;;;;;;14.97;10.30;;;14.60;61.50;;;;;;5023927;28;20909;-71
2022/04/25 12:31:46;;;;;;;11.00;9.30;;;14.80;58.90;;;;;;5020320;28;20976;-71
2022/04/25 12:34:12;;;;;;;15.77;11.17;;;15.10;56.80;;;;;;5020989;28;20793;-71
2022/04/25 12:36:39;;;;;;;12.80;9.00;;;15.30;58.90;;;;;;5020872;28;20901;-71
2022/04/25 12:39:14;;;;;;;19.43;10.60;;;15.60;53.80;;;;;;5023188;28;20434;-71
2022/04/25 12:41:51;;;;;;;12.90;9.10;;;15.80;57.80;;;;;;5026717;28;20426;-71
2022/04/25 12:44:17;;;;;;;11.90;9.30;;;15.70;58.70;;;;;;5023822;28;20479;-71
2022/04/25 12:46:48;;;;;;;18.57;13.90;;;16.20;58.90;;;;;;5030310;28;20450;-71
2022/04/25 12:49:18;;;;;;;21.43;15.80;;;16.00;61.80;;;;;;5023415;28;20411;-71
2022/04/25 12:51:58;;;;;;;11.27;8.53;;;15.60;59.20;;;;;;5023890;28;20952;-71
2022/04/25 12:54:35;;;;;;;13.37;9.50;;;15.50;62.50;;;;;;5019141;28;20447;-71
2022/04/25 12:57:12;;;;;;;11.67;8.43;;;15.20;61.30;;;;;;5030612;28;20438;-71
2022/04/25 12:59:38;;;;;;;13.00;9.90;;;15.20;67.70;;;;;;5024157;28;20447;-71
2022/04/25 13:02:26;;;;;;;18.83;12.80;;;15.00;66.90;;;;;;5023733;28;20432;-71
2022/04/25 13:04:59;;;;;;;12.57;8.57;;;15.40;67.90;;;;;;5028645;28;20536;-71
2022/04/25 13:07:37;;;;;;;10.50;8.27;;;15.50;62.90;;;;;;5029949;28;21054;-71
2022/04/25 13:10:25;;;;;;;10.17;8.07;;;15.60;63.30;;;;;;5024962;28;20560;-70
2022/04/25 13:12:54;;;;;;;10.33;7.50;;;15.70;61.40;;;;;;5024067;28;20970;-71
2022/04/25 13:15:30;;;;;;;14.73;8.03;;;15.80;60.00;;;;;;5027518;28;20463;-71
2022/04/25 13:17:57;;;;;;;8.80;6.90;;;16.00;58.80;;;;;;5029095;28;20423;-70
2022/04/25 13:20:25;;;;;;;9.90;6.60;;;16.00;59.40;;;;;;5031338;28;20534;-70
2022/04/25 13:22:51;;;;;;;11.30;7.07;;;16.20;58.20;;;;;;5029289;28;20560;-70